createdAt,value
2023-05-05T00:01:08.764Z,16.46
2023-05-05T00:03:35.826Z,16.39
2023-05-05T00:06:02.774Z,16.36
2023-05-05T00:08:29.300Z,16.36
2023-05-05T00:10:56.489Z,16.31
2023-05-05T00:13:23.498Z,16.40
2023-05-05T00:15:52.451Z,16.41
2023-05-05T00:18:19.878Z,16.40
2023-05-05T00:20:47.284Z,16.31
2023-05-05T00:23:14.805Z,16.29
2023-05-05T00:25:41.623Z,16.20
2023-05-05T00:28:08.086Z,16.18
2023-05-05T00:30:34.746Z,16.15
2023-05-05T00:33:01.646Z,16.12
2023-05-05T00:35:28.333Z,16.09
2023-05-05T00:37:55.204Z,16.06
2023-05-05T00:40:21.736Z,16.07
2023-05-05T00:42:52.270Z,16.11
2023-05-05T00:45:20.137Z,16.10
2023-05-05T00:47:51.243Z,16.13
2023-05-05T00:50:38.389Z,16.10
2023-05-05T00:53:06.492Z,16.08
2023-05-05T00:55:34.264Z,16.12
2023-05-05T00:58:03.042Z,16.13
2023-05-05T01:00:30.899Z,16.13
2023-05-05T01:02:57.966Z,16.14
2023-05-05T01:05:27.590Z,16.17
2023-05-05T01:08:25.185Z,16.20
2023-05-05T01:11:03.878Z,16.16
2023-05-05T01:13:48.076Z,16.15
2023-05-05T01:16:19.401Z,16.07
2023-05-05T01:18:55.380Z,15.96
2023-05-05T01:21:31.240Z,15.88
2023-05-05T01:24:35.087Z,15.86
2023-05-05T01:27:34.663Z,15.78
2023-05-05T01:30:36.589Z,15.76
2023-05-05T01:33:08.133Z,15.78
2023-05-05T01:35:56.604Z,15.83
2023-05-05T01:38:28.188Z,15.85
2023-05-05T01:41:03.676Z,15.82
2023-05-05T01:43:35.100Z,15.82
2023-05-05T01:46:03.175Z,15.79
2023-05-05T01:48:30.786Z,15.82
2023-05-05T01:50:57.573Z,15.80
2023-05-05T01:53:25.908Z,15.84
2023-05-05T01:55:54.447Z,15.85
2023-05-05T01:58:23.467Z,15.83
2023-05-05T02:00:51.412Z,15.85
2023-05-05T02:03:19.593Z,15.84
2023-05-05T02:05:47.488Z,15.84
2023-05-05T02:08:15.244Z,15.81
2023-05-05T02:10:44.050Z,15.77
2023-05-05T02:13:15.436Z,15.74
2023-05-05T02:15:43.549Z,15.78
2023-05-05T02:18:11.555Z,15.86
2023-05-05T02:20:39.568Z,15.90
2023-05-05T02:23:07.886Z,15.98
2023-05-05T02:25:42.210Z,15.97
2023-05-05T02:28:18.367Z,15.87
2023-05-05T02:30:51.774Z,15.79
2023-05-05T02:33:21.984Z,15.65
2023-05-05T02:35:51.946Z,15.57
2023-05-05T02:38:21.591Z,15.51
2023-05-05T02:40:49.714Z,15.48
2023-05-05T02:43:19.540Z,15.47
2023-05-05T02:45:46.988Z,15.51
2023-05-05T02:48:13.460Z,15.47
2023-05-05T02:50:40.065Z,15.52
2023-05-05T02:53:06.826Z,15.58
2023-05-05T02:55:42.626Z,15.78
2023-05-05T02:58:21.614Z,15.75
2023-05-05T03:00:58.766Z,15.58
2023-05-05T03:03:29.235Z,15.42
2023-05-05T03:06:16.362Z,15.21
2023-05-05T03:08:50.146Z,15.19
2023-05-05T03:11:26.098Z,15.24
2023-05-05T03:14:01.151Z,15.23
2023-05-05T03:16:29.479Z,15.25
2023-05-05T03:18:58.594Z,15.32
2023-05-05T03:21:25.194Z,15.39
2023-05-05T03:23:51.678Z,15.46
2023-05-05T03:26:18.612Z,15.48
2023-05-05T03:28:45.105Z,15.50
2023-05-05T03:31:12.706Z,15.55
2023-05-05T03:33:39.133Z,15.50
2023-05-05T03:36:05.864Z,15.41
2023-05-05T03:38:32.341Z,15.37
2023-05-05T03:41:02.746Z,15.38
2023-05-05T03:43:29.646Z,15.42
2023-05-05T03:45:56.115Z,15.36
2023-05-05T03:48:22.628Z,15.28
2023-05-05T03:50:49.149Z,15.28
2023-05-05T03:53:15.680Z,15.28
2023-05-05T03:55:42.081Z,15.22
2023-05-05T03:58:08.459Z,15.23
2023-05-05T04:00:34.825Z,15.20
2023-05-05T04:03:01.290Z,15.27
2023-05-05T04:05:28.022Z,15.33
2023-05-05T04:07:54.454Z,15.32
2023-05-05T04:10:21.450Z,15.39
2023-05-05T04:12:47.924Z,15.50
2023-05-05T04:15:14.516Z,15.63
2023-05-05T04:17:40.922Z,15.77
2023-05-05T04:20:08.374Z,15.90
2023-05-05T04:22:35.054Z,16.01
2023-05-05T04:25:01.522Z,15.95
2023-05-05T04:27:29.892Z,15.84
2023-05-05T04:29:56.771Z,15.86
2023-05-05T04:32:23.423Z,15.85
2023-05-05T04:34:49.839Z,15.88
2023-05-05T04:37:16.296Z,15.90
2023-05-05T04:39:42.752Z,15.95
2023-05-05T04:42:09.205Z,16.02
2023-05-05T04:44:35.760Z,16.14
2023-05-05T04:47:02.311Z,16.10
2023-05-05T04:49:32.002Z,16.04
2023-05-05T04:51:58.916Z,15.99
2023-05-05T04:54:25.588Z,16.02
2023-05-05T04:56:52.176Z,16.15
2023-05-05T04:59:18.600Z,16.30
2023-05-05T05:01:45.150Z,16.41
2023-05-05T05:04:11.629Z,16.46
2023-05-05T05:06:38.266Z,16.50
2023-05-05T05:09:04.714Z,16.43
2023-05-05T05:11:31.260Z,16.39
2023-05-05T05:13:57.705Z,16.44
2023-05-05T05:16:25.243Z,16.55
2023-05-05T05:18:51.755Z,16.49
2023-05-05T05:21:18.401Z,16.33
2023-05-05T05:23:44.901Z,16.27
2023-05-05T05:26:11.432Z,16.30
2023-05-05T05:28:37.820Z,16.38
2023-05-05T05:31:04.822Z,16.53
2023-05-05T05:33:31.219Z,16.79
2023-05-05T05:35:57.652Z,17.08
2023-05-05T05:38:24.134Z,17.29
2023-05-05T05:40:50.838Z,17.73
2023-05-05T05:43:17.244Z,18.05
2023-05-05T05:45:44.017Z,18.17
2023-05-05T05:48:10.832Z,18.32
2023-05-05T05:50:38.712Z,18.36
2023-05-05T05:53:05.244Z,18.47
2023-05-05T05:55:31.668Z,18.79
2023-05-05T05:57:58.136Z,19.65
2023-05-05T06:00:24.885Z,20.65
2023-05-05T06:02:51.706Z,21.35
2023-05-05T06:05:18.282Z,21.64
2023-05-05T06:07:44.670Z,22.07
2023-05-05T06:10:25.898Z,22.77
2023-05-05T06:12:53.709Z,23.24
2023-05-05T06:15:20.156Z,23.74
2023-05-05T06:17:46.646Z,24.37
2023-05-05T06:20:13.888Z,24.68
2023-05-05T06:22:40.484Z,24.89
2023-05-05T06:25:07.256Z,24.82
2023-05-05T06:27:33.976Z,24.98
2023-05-05T06:30:00.409Z,24.64
2023-05-05T06:32:26.832Z,24.33
2023-05-05T06:34:53.459Z,23.88
2023-05-05T06:37:19.818Z,23.71
2023-05-05T06:39:46.471Z,23.18
2023-05-05T06:42:12.930Z,22.96
2023-05-05T06:44:39.823Z,23.05
2023-05-05T06:47:06.306Z,22.89
2023-05-05T06:49:32.800Z,22.71
2023-05-05T06:51:59.376Z,22.84
2023-05-05T06:54:25.877Z,22.77
2023-05-05T06:56:52.288Z,22.94
2023-05-05T06:59:18.941Z,23.53
2023-05-05T07:01:45.513Z,23.88
2023-05-05T07:04:12.326Z,24.40
2023-05-05T07:06:38.727Z,24.40
2023-05-05T07:09:05.187Z,24.15
2023-05-05T07:11:31.661Z,23.79
2023-05-05T07:13:58.155Z,23.49
2023-05-05T07:16:25.500Z,23.15
2023-05-05T07:18:51.939Z,22.75
2023-05-05T07:21:18.343Z,22.43
2023-05-05T07:23:46.683Z,22.22
2023-05-05T07:26:13.997Z,21.83
2023-05-05T07:28:41.485Z,21.63
2023-05-05T07:31:07.843Z,21.42
2023-05-05T07:33:34.297Z,21.26
2023-05-05T07:36:00.979Z,21.01
2023-05-05T07:38:28.488Z,20.78
2023-05-05T07:40:55.019Z,20.50
2023-05-05T07:43:21.506Z,20.20
2023-05-05T07:45:48.051Z,19.70
2023-05-05T07:48:14.529Z,19.30
2023-05-05T07:50:41.405Z,19.27
2023-05-05T07:53:14.395Z,19.29
2023-05-05T07:55:41.462Z,19.23
2023-05-05T07:58:08.497Z,19.31
2023-05-05T08:00:34.993Z,19.22
2023-05-05T08:03:01.750Z,19.18
2023-05-05T08:05:28.265Z,19.16
2023-05-05T08:07:54.797Z,19.19
2023-05-05T08:10:22.452Z,19.26
2023-05-05T08:12:49.093Z,19.17
2023-05-05T08:15:15.827Z,19.27
2023-05-05T08:17:50.639Z,19.43
2023-05-05T08:20:18.912Z,19.53
2023-05-05T08:22:46.086Z,19.66
2023-05-05T08:25:13.731Z,19.85
2023-05-05T08:27:41.784Z,19.83
2023-05-05T08:30:09.455Z,19.85
2023-05-05T08:32:35.903Z,19.64
2023-05-05T08:35:03.463Z,19.48
2023-05-05T08:37:30.050Z,19.34
2023-05-05T08:39:57.934Z,19.38
2023-05-05T08:42:36.302Z,19.40
2023-05-05T08:45:05.559Z,19.45
2023-05-05T08:47:35.254Z,19.44
2023-05-05T08:50:02.424Z,19.59
2023-05-05T08:52:36.440Z,19.85
2023-05-05T08:55:24.463Z,20.21
2023-05-05T08:57:54.492Z,20.42
2023-05-05T09:00:21.326Z,20.59
2023-05-05T09:02:48.321Z,20.72
2023-05-05T09:05:15.468Z,20.86
2023-05-05T09:07:44.365Z,21.00
2023-05-05T09:10:12.249Z,21.35
2023-05-05T09:12:42.584Z,21.41
2023-05-05T09:15:11.655Z,21.42
2023-05-05T09:17:39.522Z,21.76
2023-05-05T09:20:15.556Z,21.98
2023-05-05T09:22:46.813Z,22.07
2023-05-05T09:25:15.202Z,22.59
2023-05-05T09:27:43.760Z,23.68
2023-05-05T09:30:12.089Z,24.81
2023-05-05T09:32:49.455Z,25.60
2023-05-05T09:35:16.928Z,26.13
2023-05-05T09:37:43.841Z,26.73
2023-05-05T09:40:14.385Z,27.04
2023-05-05T09:42:41.411Z,26.98
2023-05-05T09:45:28.231Z,27.31
2023-05-05T09:47:59.212Z,27.64
2023-05-05T09:50:30.704Z,27.55
2023-05-05T09:53:04.087Z,27.41
2023-05-05T09:55:31.360Z,27.21
2023-05-05T09:58:17.080Z,26.95
2023-05-05T10:00:43.740Z,26.88
2023-05-05T10:03:10.399Z,26.59
2023-05-05T10:05:48.257Z,26.35
2023-05-05T10:08:14.775Z,26.09
2023-05-05T10:10:51.469Z,25.69
2023-05-05T10:13:20.647Z,25.20
2023-05-05T10:15:49.805Z,24.96
2023-05-05T10:18:20.698Z,24.90
2023-05-05T10:20:49.564Z,25.06
2023-05-05T10:23:19.298Z,24.96
2023-05-05T10:26:02.249Z,24.64
2023-05-05T10:28:32.937Z,24.47
2023-05-05T10:31:02.186Z,24.48
2023-05-05T10:33:35.438Z,24.49
2023-05-05T10:36:05.290Z,24.63
2023-05-05T10:38:32.781Z,24.96
2023-05-05T10:41:03.075Z,25.13
2023-05-05T10:43:30.938Z,25.19
2023-05-05T10:45:58.353Z,24.75
2023-05-05T10:48:35.821Z,24.62
2023-05-05T10:51:21.104Z,24.79
2023-05-05T10:54:03.025Z,24.84
2023-05-05T10:56:34.819Z,24.93
2023-05-05T10:59:01.310Z,25.14
2023-05-05T11:01:33.082Z,25.55
2023-05-05T11:04:19.449Z,25.92
2023-05-05T11:07:14.582Z,25.97
2023-05-05T11:09:55.200Z,25.67
2023-05-05T11:12:21.864Z,26.00
2023-05-05T11:14:48.333Z,26.07
2023-05-05T11:17:54.081Z,25.97
2023-05-05T11:20:39.869Z,26.16
2023-05-05T11:23:06.528Z,26.22
2023-05-05T11:25:36.290Z,26.50
2023-05-05T11:28:13.316Z,26.93
2023-05-05T11:30:54.913Z,27.08
2023-05-05T11:33:37.758Z,27.25
2023-05-05T11:36:07.483Z,27.40
2023-05-05T11:39:05.454Z,27.59
2023-05-05T11:41:34.953Z,27.50
2023-05-05T11:44:30.177Z,27.77
2023-05-05T11:46:56.665Z,27.92
2023-05-05T11:49:27.815Z,27.99
2023-05-05T11:51:58.594Z,28.09
2023-05-05T11:54:26.067Z,27.46
2023-05-05T11:56:57.419Z,27.29
2023-05-05T11:59:23.796Z,27.47
2023-05-05T12:01:50.685Z,27.41
2023-05-05T12:04:18.202Z,27.29
2023-05-05T12:06:46.103Z,26.98
2023-05-05T12:09:17.062Z,26.30
2023-05-05T12:11:50.125Z,25.28
2023-05-05T12:14:16.732Z,25.88
2023-05-05T12:17:04.290Z,26.12
2023-05-05T12:19:33.325Z,26.33
2023-05-05T12:22:01.298Z,26.91
2023-05-05T12:24:28.008Z,27.12
2023-05-05T12:26:54.526Z,27.21
2023-05-05T12:29:25.381Z,27.30
2023-05-05T12:31:52.211Z,26.98
2023-05-05T12:34:18.984Z,26.98
2023-05-05T12:36:45.368Z,26.88
2023-05-05T12:39:12.267Z,25.87
2023-05-05T12:41:39.019Z,25.97
2023-05-05T12:44:05.886Z,25.92
2023-05-05T12:46:43.953Z,26.19
2023-05-05T12:49:10.534Z,26.09
2023-05-05T12:51:37.924Z,26.27
2023-05-05T12:54:09.902Z,26.43
2023-05-05T12:56:41.492Z,26.14
2023-05-05T12:59:09.131Z,26.38
2023-05-05T13:01:37.245Z,26.66
2023-05-05T13:04:08.613Z,26.76
2023-05-05T13:06:36.066Z,26.80
2023-05-05T13:09:02.790Z,26.91
2023-05-05T13:11:29.398Z,26.88
2023-05-05T13:13:56.407Z,26.52
2023-05-05T13:16:22.941Z,26.58
2023-05-05T13:18:50.382Z,26.45
2023-05-05T13:21:16.860Z,26.22
2023-05-05T13:23:44.543Z,26.56
2023-05-05T13:26:12.356Z,26.81
2023-05-05T13:28:39.439Z,27.18
2023-05-05T13:31:06.362Z,27.19
2023-05-05T13:33:35.869Z,27.17
2023-05-05T13:36:03.240Z,27.12
2023-05-05T13:38:30.306Z,27.23
2023-05-05T13:40:56.938Z,27.26
2023-05-05T13:43:23.500Z,26.63
2023-05-05T13:45:50.069Z,26.74
2023-05-05T13:48:16.546Z,26.71
2023-05-05T13:50:43.091Z,27.05
2023-05-05T13:53:09.953Z,27.09
2023-05-05T13:55:36.519Z,26.32
2023-05-05T13:58:02.969Z,26.43
2023-05-05T14:00:29.536Z,26.06
2023-05-05T14:02:55.958Z,26.23
2023-05-05T14:05:23.343Z,25.86
2023-05-05T14:07:49.873Z,25.91
2023-05-05T14:10:16.281Z,25.94
2023-05-05T14:12:42.931Z,26.29
2023-05-05T14:15:10.256Z,26.51
2023-05-05T14:17:37.132Z,25.79
2023-05-05T14:20:04.151Z,25.87
2023-05-05T14:22:31.300Z,25.53
2023-05-05T14:24:57.840Z,25.20
2023-05-05T14:27:24.211Z,25.23
2023-05-05T14:29:50.737Z,25.33
2023-05-05T14:32:17.237Z,25.57
2023-05-05T14:34:43.715Z,25.38
2023-05-05T14:37:10.086Z,25.29
2023-05-05T14:39:36.646Z,25.50
2023-05-05T14:42:03.180Z,25.62
2023-05-05T14:44:29.647Z,25.49
2023-05-05T14:46:56.278Z,25.58
2023-05-05T14:49:22.809Z,25.52
2023-05-05T14:51:49.287Z,25.26
2023-05-05T14:54:27.595Z,24.79
2023-05-05T14:56:55.324Z,24.43
2023-05-05T14:59:21.763Z,24.57
2023-05-05T15:01:48.381Z,24.40
2023-05-05T15:04:15.046Z,24.26
2023-05-05T15:06:41.495Z,24.35
2023-05-05T15:09:07.881Z,24.01
2023-05-05T15:11:34.318Z,24.08
2023-05-05T15:14:00.818Z,24.09
2023-05-05T15:16:27.352Z,23.95
2023-05-05T15:18:53.877Z,23.85
2023-05-05T15:21:20.302Z,23.85
2023-05-05T15:23:46.798Z,23.69
2023-05-05T15:26:13.463Z,23.64
2023-05-05T15:28:39.813Z,23.61
2023-05-05T15:31:06.389Z,23.45
2023-05-05T15:33:35.859Z,23.34
2023-05-05T15:36:02.254Z,23.16
2023-05-05T15:38:30.107Z,23.05
2023-05-05T15:40:56.737Z,22.93
2023-05-05T15:43:23.154Z,22.81
2023-05-05T15:45:49.577Z,22.59
2023-05-05T15:48:15.985Z,22.35
2023-05-05T15:50:42.512Z,22.06
2023-05-05T15:53:09.089Z,21.70
2023-05-05T15:55:35.885Z,21.29
2023-05-05T15:58:02.418Z,20.87
2023-05-05T16:00:28.842Z,20.29
2023-05-05T16:02:55.420Z,19.73
2023-05-05T16:05:23.187Z,19.11
2023-05-05T16:07:49.806Z,18.57
2023-05-05T16:10:17.547Z,18.43
2023-05-05T16:12:44.614Z,18.50
2023-05-05T16:15:11.553Z,18.51
2023-05-05T16:17:38.299Z,18.27
2023-05-05T16:20:05.127Z,18.11
2023-05-05T16:22:31.745Z,17.91
2023-05-05T16:24:58.168Z,17.53
2023-05-05T16:27:24.671Z,17.44
2023-05-05T16:29:51.331Z,17.61
2023-05-05T16:32:17.805Z,17.69
2023-05-05T16:34:44.411Z,17.58
2023-05-05T16:37:11.004Z,17.59
2023-05-05T16:39:40.377Z,17.41
2023-05-05T16:42:06.982Z,17.48
2023-05-05T16:44:33.586Z,17.48
2023-05-05T16:47:00.004Z,17.48
2023-05-05T16:49:26.516Z,17.64
2023-05-05T16:51:53.488Z,17.83
2023-05-05T16:54:20.177Z,17.87
2023-05-05T16:56:46.794Z,17.84
2023-05-05T16:59:15.175Z,18.03
2023-05-05T17:01:43.327Z,18.25
2023-05-05T17:04:10.918Z,18.25
2023-05-05T17:06:37.332Z,18.27
2023-05-05T17:09:03.846Z,18.05
2023-05-05T17:11:30.269Z,18.00
2023-05-05T17:13:56.675Z,18.04
2023-05-05T17:16:23.247Z,18.27
2023-05-05T17:18:49.766Z,18.31
2023-05-05T17:21:16.351Z,18.37
2023-05-05T17:23:42.909Z,18.28
2023-05-05T17:26:09.344Z,18.41
2023-05-05T17:28:35.761Z,18.32
2023-05-05T17:31:02.184Z,18.29
2023-05-05T17:33:28.635Z,18.22
2023-05-05T17:35:55.088Z,18.16
2023-05-05T17:38:21.627Z,18.31
2023-05-05T17:40:48.370Z,18.24
2023-05-05T17:43:14.782Z,18.35
2023-05-05T17:45:42.230Z,18.34
2023-05-05T17:48:08.773Z,18.37
2023-05-05T17:50:35.295Z,18.38
2023-05-05T17:53:01.744Z,18.35
2023-05-05T17:55:28.420Z,18.35
2023-05-05T17:57:57.158Z,18.40
2023-05-05T18:00:23.700Z,18.38
2023-05-05T18:02:50.418Z,18.27
2023-05-05T18:05:17.095Z,18.21
2023-05-05T18:07:43.573Z,18.23
2023-05-05T18:10:10.759Z,18.22
2023-05-05T18:12:37.210Z,18.20
2023-05-05T18:15:05.544Z,18.10
2023-05-05T18:17:32.265Z,18.02
2023-05-05T18:19:58.891Z,17.96
2023-05-05T18:22:25.261Z,17.96
2023-05-05T18:24:51.799Z,17.96
2023-05-05T18:27:18.304Z,17.99
2023-05-05T18:29:44.753Z,18.05
2023-05-05T18:32:11.155Z,18.01
2023-05-05T18:34:37.552Z,17.93
2023-05-05T18:37:04.945Z,17.80
2023-05-05T18:39:31.322Z,17.73
2023-05-05T18:41:57.750Z,17.67
2023-05-05T18:44:24.205Z,17.59
2023-05-05T18:46:51.329Z,17.61
2023-05-05T18:49:17.941Z,17.52
2023-05-05T18:51:44.457Z,17.45
2023-05-05T18:54:10.944Z,17.43
2023-05-05T18:56:37.436Z,17.38
2023-05-05T18:59:04.879Z,17.32
2023-05-05T19:01:31.488Z,17.22
2023-05-05T19:03:57.947Z,17.15
2023-05-05T19:06:24.396Z,17.10
2023-05-05T19:08:50.851Z,17.10
2023-05-05T19:11:17.255Z,17.06
2023-05-05T19:13:43.840Z,17.06
2023-05-05T19:16:10.985Z,17.05
2023-05-05T19:18:37.626Z,17.00
2023-05-05T19:21:06.483Z,16.99
2023-05-05T19:23:33.376Z,16.97
2023-05-05T19:25:59.871Z,17.00
2023-05-05T19:28:26.251Z,16.99
2023-05-05T19:30:52.788Z,17.02
2023-05-05T19:33:19.267Z,17.05
2023-05-05T19:35:45.774Z,17.13
2023-05-05T19:38:12.705Z,17.10
2023-05-05T19:40:39.866Z,17.19
2023-05-05T19:43:06.900Z,17.20
2023-05-05T19:45:33.903Z,17.19
2023-05-05T19:48:01.428Z,17.27
2023-05-05T19:50:30.148Z,17.31
2023-05-05T19:52:56.676Z,17.37
2023-05-05T19:55:23.149Z,17.41
2023-05-05T19:57:49.519Z,17.49
2023-05-05T20:00:16.361Z,17.50
2023-05-05T20:02:42.958Z,17.51
2023-05-05T20:05:11.444Z,17.46
2023-05-05T20:07:37.849Z,17.43
2023-05-05T20:10:04.609Z,17.39
2023-05-05T20:12:31.204Z,17.38
2023-05-05T20:14:57.656Z,17.37
2023-05-05T20:17:25.625Z,17.34
2023-05-05T20:19:52.308Z,17.27
2023-05-05T20:22:18.747Z,17.18
2023-05-05T20:24:45.265Z,17.11
2023-05-05T20:27:11.679Z,17.04
2023-05-05T20:29:38.163Z,17.03
2023-05-05T20:32:05.620Z,17.01
2023-05-05T20:34:32.177Z,17.02
2023-05-05T20:36:58.629Z,16.99
2023-05-05T20:39:25.068Z,16.96
2023-05-05T20:41:51.454Z,16.91
2023-05-05T20:44:17.903Z,16.83
2023-05-05T20:46:44.484Z,16.74
2023-05-05T20:49:10.986Z,16.72
2023-05-05T20:51:37.685Z,16.75
2023-05-05T20:54:04.479Z,16.75
2023-05-05T20:56:30.878Z,16.77
2023-05-05T20:58:57.502Z,16.80
2023-05-05T21:01:24.063Z,16.79
2023-05-05T21:03:50.699Z,16.86
2023-05-05T21:06:19.382Z,16.87
2023-05-05T21:08:47.112Z,16.93
2023-05-05T21:11:13.623Z,17.03
2023-05-05T21:16:07.030Z,17.16
2023-05-05T21:18:33.581Z,17.20
2023-05-05T21:21:00.278Z,17.19
2023-05-05T21:23:26.811Z,17.14
2023-05-05T21:25:53.300Z,17.09
2023-05-05T21:28:19.723Z,17.13
2023-05-05T21:30:54.785Z,17.19
2023-05-05T21:33:31.361Z,17.12
2023-05-05T21:35:58.096Z,17.11
2023-05-05T21:38:24.774Z,17.08
2023-05-05T21:40:57.457Z,17.15
2023-05-05T21:43:26.224Z,17.20
2023-05-05T21:46:03.974Z,17.24
2023-05-05T21:48:31.345Z,17.31
2023-05-05T21:50:57.720Z,17.24
2023-05-05T21:53:24.365Z,17.26
2023-05-05T21:55:50.966Z,17.22
2023-05-05T21:58:17.514Z,17.18
2023-05-05T22:00:44.910Z,17.16
2023-05-05T22:03:11.651Z,17.08
2023-05-05T22:05:38.401Z,17.09
2023-05-05T22:08:04.963Z,17.08
2023-05-05T22:10:31.440Z,17.11
2023-05-05T22:12:58.191Z,17.06
2023-05-05T22:15:27.649Z,17.02
2023-05-05T22:17:56.575Z,17.00
2023-05-05T22:20:23.178Z,17.02
2023-05-05T22:22:49.605Z,16.94
2023-05-05T22:25:16.384Z,16.93
2023-05-05T22:27:43.019Z,16.90
2023-05-05T22:30:09.944Z,16.94
2023-05-05T22:32:36.404Z,16.88
2023-05-05T22:35:02.855Z,16.87
2023-05-05T22:37:29.280Z,17.00
2023-05-05T22:39:55.771Z,17.05
2023-05-05T22:42:22.196Z,16.99
2023-05-05T22:44:48.616Z,16.96
2023-05-05T22:47:15.235Z,17.02
2023-05-05T22:49:41.885Z,17.00
2023-05-05T22:52:08.664Z,17.06
2023-05-05T22:54:35.032Z,17.04
2023-05-05T22:57:02.310Z,17.04
2023-05-05T22:59:28.725Z,17.07
2023-05-05T23:01:55.190Z,17.07
2023-05-05T23:04:21.653Z,17.07
2023-05-05T23:06:48.125Z,17.03
2023-05-05T23:09:14.710Z,17.10
2023-05-05T23:11:41.088Z,17.16
2023-05-05T23:14:07.474Z,17.12
2023-05-05T23:16:34.287Z,17.11
2023-05-05T23:19:00.742Z,17.01
2023-05-05T23:21:28.415Z,17.02
2023-05-05T23:23:55.759Z,16.93
2023-05-05T23:26:22.362Z,16.85
2023-05-05T23:28:48.818Z,16.77
2023-05-05T23:31:15.571Z,16.84
2023-05-05T23:33:41.974Z,16.81
2023-05-05T23:36:09.102Z,16.83
2023-05-05T23:38:35.565Z,16.83
2023-05-05T23:41:02.043Z,16.78
2023-05-05T23:43:28.434Z,16.76
2023-05-05T23:45:54.984Z,16.74
2023-05-05T23:48:21.665Z,16.74
2023-05-05T23:50:48.062Z,16.81
2023-05-05T23:53:15.752Z,16.87
2023-05-05T23:55:42.155Z,16.97
2023-05-05T23:58:08.636Z,16.90
